This is the latest recevied weather packets stored in our database for station/object N1OTX. If no packets are shown the sender has not sent any weather packets the latest 10 day(s).
| Time | Temp. | Humidity | Pressure | Rain* | Wind** | Luminosity | Snow |
|---|---|---|---|---|---|---|---|
| 1777956930 | 12.78° C | 65% | 1010.5 hPa | 0 mm | - | 0 W/m² | - |
| 1777955171 | 13.33° C | 62% | 1010.5 hPa | 0 mm | - | 0 W/m² | - |
| 1777954551 | 13.33° C | 61% | 1010.5 hPa | 0 mm | - | 0 W/m² | - |
| 1777948230 | 14.44° C | 52% | 1010.5 hPa | 0 mm | - | 0 W/m² | - |
| 1777945230 | 15.56° C | 49% | 1010.1 hPa | 0 mm | - | 0 W/m² | - |
| 1777940750 | 17.22° C | 43% | 1008.6 hPa | 0 mm | - | 0 W/m² | - |
| 1777937731 | 18.33° C | 39% | 1007.7 hPa | 0 mm | - | 8 W/m² | - |
| 1777936230 | 19.44° C | 36% | 1007.3 hPa | 0 mm | - | 23 W/m² | - |
| 1777934729 | 20.56° C | 33% | 1006.7 hPa | 0 mm | - | 34 W/m² | - |
| 1777932630 | 21.11° C | 29% | 1006.5 hPa | 0 mm | - | 70 W/m² | - |
| 1777929951 | 21.67° C | 28% | 1006.6 hPa | 0 mm | - | 172 W/m² | - |
| 1777927530 | 21.67° C | 28% | 1006.6 hPa | 0 mm | - | 343 W/m² | - |
| 1777925470 | 22.22° C | 26% | 1006.7 hPa | 0 mm | - | 396 W/m² | - |
| 1777921830 | 22.22° C | 26% | 1006.9 hPa | 0 mm | - | 641 W/m² | - |
| 1777917629 | 21.67° C | 28% | 1007.3 hPa | 0 mm | - | 754 W/m² | - |
| 1777917330 | 21.67° C | 29% | 1007.4 hPa | 0 mm | - | 784 W/m² | - |
| 1777917029 | 21.67° C | 28% | 1007.5 hPa | 0 mm | - | 784 W/m² | - |
| 1777914970 | 21.11° C | 29% | 1007.7 hPa | 0 mm | - | 819 W/m² | - |
| 1777913169 | 20.56° C | 31% | 1007.8 hPa | 0 mm | - | 830 W/m² | - |
| 1777912850 | 20.56° C | 31% | 1008 hPa | 0 mm | - | 831 W/m² | - |
| 1777909231 | 20.56° C | 32% | 1008.6 hPa | 0 mm | - | 810 W/m² | - |
| 1777908030 | 20° C | 32% | 1008.8 hPa | 0 mm | - | 781 W/m² | - |
| 1777905030 | 18.33° C | 35% | 1009.4 hPa | 0 mm | - | 695 W/m² | - |
| 1777903830 | 17.78° C | 38% | 1009.5 hPa | 0 mm | - | 653 W/m² | - |
| 1777899330 | 15° C | 42% | 1010.4 hPa | 0 mm | - | 447 W/m² | - |
* Rain latest hour (hover to see other rain measurements)
** Current wind speed in m/s (hover to see current wind gust speed)